createdAt,value
2017-10-08T00:00:59.607Z,56.6
2017-10-08T00:02:01.024Z,56.9
2017-10-08T00:03:02.437Z,57.0
2017-10-08T00:04:03.852Z,57.2
2017-10-08T00:05:05.267Z,56.9
2017-10-08T00:06:06.680Z,56.7
2017-10-08T00:07:08.096Z,57.0
2017-10-08T00:08:09.517Z,56.7
2017-10-08T00:09:10.924Z,57.1
2017-10-08T00:10:12.339Z,57.3
2017-10-08T00:11:13.759Z,57.0
2017-10-08T00:12:15.170Z,57.4
2017-10-08T00:13:16.586Z,57.4
2017-10-08T00:14:18.004Z,57.3
2017-10-08T00:15:19.410Z,57.5
2017-10-08T00:16:20.829Z,57.4
2017-10-08T00:17:22.241Z,57.0
2017-10-08T00:18:23.664Z,57.3
2017-10-08T00:19:25.078Z,57.3
2017-10-08T00:20:26.494Z,57.0
2017-10-08T00:21:27.909Z,57.5
2017-10-08T00:22:29.326Z,57.3
2017-10-08T00:23:30.745Z,56.9
2017-10-08T00:24:32.162Z,56.9
2017-10-08T00:25:33.580Z,57.4
2017-10-08T00:26:34.992Z,57.3
2017-10-08T00:27:36.408Z,57.3
2017-10-08T00:28:37.823Z,57.3
2017-10-08T00:29:39.238Z,57.3
2017-10-08T00:30:40.657Z,56.8
2017-10-08T00:31:42.068Z,57.0
2017-10-08T00:32:43.480Z,57.6
2017-10-08T00:33:44.898Z,57.3
2017-10-08T00:34:46.334Z,57.0
2017-10-08T00:35:47.750Z,57.5
2017-10-08T00:36:49.168Z,57.2
2017-10-08T00:37:50.585Z,57.3
2017-10-08T00:38:52.000Z,57.3
2017-10-08T00:39:53.412Z,57.2
2017-10-08T00:40:54.831Z,57.2
2017-10-08T00:41:56.243Z,56.9
2017-10-08T00:42:57.656Z,56.9
2017-10-08T00:43:59.071Z,56.9
2017-10-08T00:45:00.492Z,56.9
2017-10-08T00:46:01.908Z,56.9
2017-10-08T00:47:03.324Z,57.2
2017-10-08T00:48:04.798Z,57.0
2017-10-08T00:49:06.215Z,57.0
2017-10-08T00:50:07.631Z,57.0
2017-10-08T00:51:09.047Z,57.2
2017-10-08T00:52:10.465Z,57.0
2017-10-08T00:53:11.879Z,57.0
2017-10-08T00:54:13.291Z,57.2
2017-10-08T00:55:14.714Z,57.2
2017-10-08T00:56:16.131Z,56.9
2017-10-08T00:57:17.545Z,56.9
2017-10-08T00:58:18.960Z,57.3
2017-10-08T00:59:20.372Z,57.3
2017-10-08T01:00:21.789Z,57.2
2017-10-08T01:01:23.204Z,57.1
2017-10-08T01:02:24.622Z,57.1
2017-10-08T01:03:26.033Z,56.9
2017-10-08T01:04:27.448Z,57.1
2017-10-08T01:05:28.866Z,57.3
2017-10-08T01:06:30.270Z,57.2
2017-10-08T01:07:31.699Z,57.3
2017-10-08T01:08:33.114Z,57.3
2017-10-08T01:09:34.573Z,57.2
2017-10-08T01:10:35.989Z,57.3
2017-10-08T01:11:37.436Z,57.5
2017-10-08T01:12:38.852Z,57.3
2017-10-08T01:13:40.269Z,57.2
2017-10-08T01:14:41.684Z,57.3
2017-10-08T01:15:43.099Z,56.9
2017-10-08T01:16:44.533Z,57.3
2017-10-08T01:17:45.949Z,57.3
2017-10-08T01:18:47.371Z,57.1
2017-10-08T01:19:48.787Z,57.1
2017-10-08T01:20:50.206Z,57.1
2017-10-08T01:21:51.623Z,57.2
2017-10-08T01:22:53.040Z,57.1
2017-10-08T01:23:54.460Z,57.1
2017-10-08T01:24:55.872Z,57.3
2017-10-08T01:25:57.287Z,57.2
2017-10-08T01:26:58.704Z,57.0
2017-10-08T01:28:00.121Z,57.3
2017-10-08T01:29:01.537Z,57.1
2017-10-08T01:30:02.951Z,56.9
2017-10-08T01:31:04.366Z,57.1
2017-10-08T01:32:05.781Z,57.1
2017-10-08T01:33:07.193Z,57.2
2017-10-08T01:34:08.610Z,56.9
2017-10-08T01:35:10.027Z,57.3
2017-10-08T01:36:11.442Z,57.2
2017-10-08T01:37:12.858Z,57.0
2017-10-08T01:38:14.271Z,57.0
2017-10-08T01:39:15.689Z,57.1
2017-10-08T01:40:17.104Z,57.0
2017-10-08T01:41:18.522Z,57.0
2017-10-08T01:42:19.939Z,57.0
2017-10-08T01:43:21.355Z,57.3
2017-10-08T01:44:22.770Z,57.1
2017-10-08T01:45:24.186Z,57.2
2017-10-08T01:46:25.599Z,57.0
2017-10-08T01:47:27.016Z,57.2
2017-10-08T01:48:28.427Z,57.2
2017-10-08T01:49:29.842Z,57.1
2017-10-08T01:50:31.259Z,57.2
2017-10-08T01:51:32.676Z,57.0
2017-10-08T01:52:34.110Z,56.9
2017-10-08T01:53:35.527Z,57.1
2017-10-08T01:54:36.964Z,56.9
2017-10-08T01:55:38.379Z,57.0
2017-10-08T01:56:39.793Z,56.9
2017-10-08T01:57:41.208Z,57.0
2017-10-08T01:58:42.624Z,57.3
2017-10-08T01:59:44.038Z,57.1
2017-10-08T02:00:45.451Z,57.1
2017-10-08T02:01:46.866Z,57.1
2017-10-08T02:02:48.284Z,57.2
2017-10-08T02:03:49.694Z,56.9
2017-10-08T02:04:51.111Z,57.0
2017-10-08T02:05:52.528Z,57.3
2017-10-08T02:06:53.953Z,57.0
2017-10-08T02:07:55.370Z,57.1
2017-10-08T02:08:56.784Z,57.1
2017-10-08T02:09:58.198Z,57.2
2017-10-08T02:10:59.610Z,57.0
2017-10-08T02:12:01.027Z,56.9
2017-10-08T02:13:02.444Z,57.0
2017-10-08T02:14:03.860Z,57.1
2017-10-08T02:15:05.277Z,57.0
2017-10-08T02:16:06.692Z,57.2
2017-10-08T02:17:08.106Z,57.0
2017-10-08T02:18:09.523Z,57.2
2017-10-08T02:19:10.939Z,56.9
2017-10-08T02:20:12.353Z,57.3
2017-10-08T02:21:13.771Z,57.3
2017-10-08T02:22:15.182Z,57.3
2017-10-08T02:23:16.598Z,57.2
2017-10-08T02:24:18.012Z,57.3
2017-10-08T02:25:19.426Z,56.9
2017-10-08T02:26:20.842Z,56.9
2017-10-08T02:27:22.256Z,57.2
2017-10-08T02:28:23.677Z,57.1
2017-10-08T02:29:25.089Z,57.1
2017-10-08T02:30:26.510Z,57.2
2017-10-08T02:31:27.923Z,57.3
2017-10-08T02:32:29.339Z,57.2
2017-10-08T02:33:30.759Z,57.3
2017-10-08T02:34:32.169Z,57.3
2017-10-08T02:35:33.585Z,56.9
2017-10-08T02:36:35.001Z,57.1
2017-10-08T02:37:36.415Z,56.9
2017-10-08T02:38:37.830Z,57.0
2017-10-08T02:39:39.248Z,56.9
2017-10-08T02:40:40.662Z,57.2
2017-10-08T02:41:42.075Z,57.1
2017-10-08T02:42:43.491Z,57.3
2017-10-08T02:43:44.906Z,56.9
2017-10-08T02:44:46.321Z,57.2
2017-10-08T02:45:47.733Z,57.2
2017-10-08T02:46:49.147Z,56.9
2017-10-08T02:47:50.561Z,57.3
2017-10-08T02:48:51.979Z,56.9
2017-10-08T02:49:53.396Z,57.2
2017-10-08T02:50:54.809Z,57.2
2017-10-08T02:51:56.224Z,57.0
2017-10-08T02:52:57.641Z,57.1
2017-10-08T02:53:59.056Z,57.1
2017-10-08T02:55:00.477Z,57.0
2017-10-08T02:56:01.891Z,57.0
2017-10-08T02:57:03.310Z,57.0
2017-10-08T02:58:04.745Z,57.2
2017-10-08T02:59:06.160Z,57.1
2017-10-08T03:00:07.576Z,56.9
2017-10-08T03:01:08.990Z,57.1
2017-10-08T03:02:10.408Z,57.2
2017-10-08T03:03:11.823Z,57.2
2017-10-08T03:04:13.238Z,57.2
2017-10-08T03:05:14.657Z,57.1
2017-10-08T03:06:16.072Z,57.2
2017-10-08T03:07:17.489Z,57.0
2017-10-08T03:08:18.904Z,57.1
2017-10-08T03:09:20.319Z,57.1
2017-10-08T03:10:21.739Z,57.2
2017-10-08T03:11:23.152Z,57.2
2017-10-08T03:12:24.570Z,57.2
2017-10-08T03:13:25.981Z,56.9
2017-10-08T03:14:27.398Z,57.2
2017-10-08T03:15:28.813Z,57.1
2017-10-08T03:16:30.232Z,57.0
2017-10-08T03:17:31.642Z,56.9
2017-10-08T03:18:33.058Z,56.9
2017-10-08T03:19:34.474Z,57.2
2017-10-08T03:20:35.889Z,56.9
2017-10-08T03:21:37.328Z,57.1
2017-10-08T03:22:38.729Z,57.3
2017-10-08T03:23:40.146Z,56.9
2017-10-08T03:24:41.564Z,57.2
2017-10-08T03:25:42.981Z,57.2
2017-10-08T03:26:44.409Z,57.3
2017-10-08T03:27:45.825Z,56.9
2017-10-08T03:28:47.259Z,57.0
2017-10-08T03:29:48.675Z,57.0
2017-10-08T03:30:50.088Z,57.3
2017-10-08T03:31:51.503Z,57.1
2017-10-08T03:32:52.917Z,57.0
2017-10-08T03:33:54.336Z,56.9
2017-10-08T03:34:55.748Z,57.2
2017-10-08T03:35:57.167Z,57.1
2017-10-08T03:36:58.581Z,57.1
2017-10-08T03:37:59.998Z,57.1
2017-10-08T03:39:01.417Z,57.1
2017-10-08T03:40:02.832Z,56.9
2017-10-08T03:41:04.248Z,57.1
2017-10-08T03:42:05.663Z,57.1
2017-10-08T03:43:07.081Z,57.1
2017-10-08T03:44:08.497Z,57.1
2017-10-08T03:45:09.918Z,56.9
2017-10-08T03:46:11.328Z,57.2
2017-10-08T03:47:12.746Z,57.0
2017-10-08T03:48:14.159Z,57.1
2017-10-08T03:49:15.575Z,57.0
2017-10-08T03:50:16.989Z,57.1
2017-10-08T03:51:18.405Z,57.2
2017-10-08T03:52:19.821Z,57.0
2017-10-08T03:53:21.235Z,56.9
2017-10-08T03:54:22.653Z,57.1
2017-10-08T03:55:24.066Z,57.1
2017-10-08T03:56:25.481Z,57.0
2017-10-08T03:57:26.896Z,57.0
2017-10-08T03:58:28.310Z,56.9
2017-10-08T03:59:29.724Z,57.0
2017-10-08T04:00:31.141Z,56.9
2017-10-08T04:01:32.556Z,57.0
2017-10-08T04:02:33.971Z,57.1
2017-10-08T04:03:35.384Z,56.8
2017-10-08T04:04:36.798Z,57.0
2017-10-08T04:05:38.215Z,56.9
2017-10-08T04:06:39.627Z,57.1
2017-10-08T04:07:41.045Z,56.8
2017-10-08T04:08:42.464Z,57.0
2017-10-08T04:09:43.880Z,57.0
2017-10-08T04:10:45.295Z,57.0
2017-10-08T04:11:46.715Z,57.1
2017-10-08T04:12:48.131Z,57.3
2017-10-08T04:13:49.543Z,57.3
2017-10-08T04:14:50.963Z,57.1
2017-10-08T04:15:52.378Z,57.3
2017-10-08T04:16:53.793Z,57.2
2017-10-08T04:17:55.207Z,57.3
2017-10-08T04:18:56.621Z,57.2
2017-10-08T04:19:58.040Z,57.3
2017-10-08T04:20:59.451Z,57.0
2017-10-08T04:22:00.865Z,57.1
2017-10-08T04:23:02.284Z,57.1
2017-10-08T04:24:03.702Z,57.1
2017-10-08T04:25:05.113Z,57.1
2017-10-08T04:26:06.527Z,57.0
2017-10-08T04:27:07.943Z,57.1
2017-10-08T04:28:09.357Z,57.1
2017-10-08T04:29:10.773Z,57.0
2017-10-08T04:30:12.190Z,57.2
2017-10-08T04:31:13.607Z,57.2
2017-10-08T04:32:15.024Z,57.1
2017-10-08T04:33:16.442Z,56.9
2017-10-08T04:34:17.855Z,56.9
2017-10-08T04:35:19.273Z,57.2
2017-10-08T04:36:20.687Z,57.3
2017-10-08T04:37:22.103Z,57.3
2017-10-08T04:38:23.519Z,57.0
2017-10-08T04:39:24.933Z,57.0
2017-10-08T04:40:26.349Z,56.8
2017-10-08T04:41:27.765Z,57.0
2017-10-08T04:42:29.178Z,57.1
2017-10-08T04:43:30.595Z,57.0
2017-10-08T04:44:32.016Z,56.8
2017-10-08T04:45:33.425Z,57.1
2017-10-08T04:46:34.838Z,57.1
2017-10-08T04:47:36.253Z,57.2
2017-10-08T04:48:37.669Z,57.1
2017-10-08T04:49:39.081Z,57.4
2017-10-08T04:50:40.502Z,57.3
2017-10-08T04:51:41.921Z,57.3
2017-10-08T04:52:43.337Z,57.2
2017-10-08T04:53:44.750Z,57.3
2017-10-08T04:54:46.173Z,57.2
2017-10-08T04:55:47.590Z,57.2
2017-10-08T04:56:49.007Z,57.2
2017-10-08T04:57:50.422Z,57.3
2017-10-08T04:58:51.837Z,57.1
2017-10-08T04:59:53.254Z,57.3
2017-10-08T05:00:54.670Z,57.0
2017-10-08T05:01:56.088Z,56.9
2017-10-08T05:02:57.498Z,57.1
2017-10-08T05:03:58.912Z,56.9
2017-10-08T05:05:00.329Z,57.3
2017-10-08T05:06:01.747Z,57.2
2017-10-08T05:07:03.165Z,57.3
2017-10-08T05:08:04.645Z,56.9
2017-10-08T05:09:06.025Z,57.0
2017-10-08T05:10:07.450Z,57.2
2017-10-08T05:11:08.865Z,57.3
2017-10-08T05:12:10.283Z,57.3
2017-10-08T05:13:11.701Z,57.2
2017-10-08T05:14:13.115Z,57.2
2017-10-08T05:15:14.530Z,57.2
2017-10-08T05:16:15.947Z,57.2
2017-10-08T05:17:17.363Z,57.3
2017-10-08T05:18:18.782Z,57.0
2017-10-08T05:19:20.195Z,57.2
2017-10-08T05:20:21.610Z,57.3
2017-10-08T05:21:23.021Z,57.0
2017-10-08T05:22:24.437Z,57.3
2017-10-08T05:23:25.850Z,57.1
2017-10-08T05:24:27.264Z,57.2
2017-10-08T05:25:28.681Z,57.3
2017-10-08T05:26:30.099Z,57.5
2017-10-08T05:27:31.518Z,57.3
2017-10-08T05:28:32.935Z,57.2
2017-10-08T05:29:34.371Z,57.3
2017-10-08T05:30:35.785Z,57.2
2017-10-08T05:31:37.204Z,57.3
2017-10-08T05:32:38.618Z,57.2
2017-10-08T05:33:40.036Z,57.2
2017-10-08T05:34:41.452Z,57.2
2017-10-08T05:35:42.871Z,57.3
2017-10-08T05:36:44.290Z,57.1
2017-10-08T05:37:45.707Z,57.1
2017-10-08T05:38:47.124Z,57.5
2017-10-08T05:39:48.541Z,57.4
2017-10-08T05:40:49.959Z,57.3
2017-10-08T05:41:51.375Z,57.2
2017-10-08T05:42:52.797Z,57.3
2017-10-08T05:43:54.210Z,57.3
2017-10-08T05:44:55.630Z,57.2
2017-10-08T05:45:57.049Z,57.1
2017-10-08T05:46:58.466Z,57.1
2017-10-08T05:47:59.885Z,57.3
2017-10-08T05:49:01.306Z,57.1
2017-10-08T05:50:02.720Z,57.1
2017-10-08T05:51:04.131Z,57.3
2017-10-08T05:52:05.602Z,57.5
2017-10-08T05:53:07.015Z,57.2
2017-10-08T05:54:08.428Z,57.3
2017-10-08T05:55:09.845Z,57.4
2017-10-08T05:56:11.287Z,57.5
2017-10-08T05:57:12.675Z,57.4
2017-10-08T05:58:14.091Z,57.3
2017-10-08T05:59:15.508Z,57.4
2017-10-08T06:00:16.922Z,57.3
2017-10-08T06:01:18.340Z,57.4
2017-10-08T06:02:19.758Z,57.1
2017-10-08T06:03:21.264Z,57.2
2017-10-08T06:04:22.680Z,57.5
2017-10-08T06:05:24.092Z,57.1
2017-10-08T06:06:25.512Z,57.1
2017-10-08T06:07:26.928Z,57.1
2017-10-08T06:08:28.342Z,57.1
2017-10-08T06:09:29.758Z,57.2
2017-10-08T06:10:31.171Z,57.4
2017-10-08T06:11:32.588Z,57.2
2017-10-08T06:12:34.002Z,57.4
2017-10-08T06:13:35.417Z,57.3
2017-10-08T06:14:36.830Z,57.1
2017-10-08T06:15:38.248Z,57.4
2017-10-08T06:16:39.660Z,57.0
2017-10-08T06:17:41.077Z,57.4
2017-10-08T06:18:42.492Z,57.1
2017-10-08T06:19:43.913Z,57.4
2017-10-08T06:20:45.331Z,57.4
2017-10-08T06:21:46.749Z,57.5
2017-10-08T06:22:48.165Z,57.4
2017-10-08T06:23:49.580Z,57.5
2017-10-08T06:24:50.996Z,57.4
2017-10-08T06:25:52.423Z,57.5
2017-10-08T06:26:53.838Z,57.3
2017-10-08T06:27:55.254Z,57.4
2017-10-08T06:28:56.671Z,57.3
2017-10-08T06:29:58.160Z,57.4
2017-10-08T06:30:59.575Z,57.4
2017-10-08T06:32:00.992Z,57.3
2017-10-08T06:33:02.406Z,57.3
2017-10-08T06:34:03.824Z,57.3
2017-10-08T06:35:05.239Z,57.4
2017-10-08T06:36:06.657Z,57.4
2017-10-08T06:37:08.077Z,57.3
2017-10-08T06:38:09.498Z,57.3
2017-10-08T06:39:10.912Z,57.5
2017-10-08T06:40:12.328Z,57.3
2017-10-08T06:41:13.836Z,57.3
2017-10-08T06:42:15.253Z,57.3
2017-10-08T06:43:16.670Z,57.3
2017-10-08T06:44:18.087Z,57.4
2017-10-08T06:45:19.500Z,57.4
2017-10-08T06:46:20.921Z,57.3
2017-10-08T06:47:22.337Z,57.1
2017-10-08T06:48:23.756Z,57.0
2017-10-08T06:49:25.173Z,57.2
2017-10-08T06:50:26.589Z,57.2
2017-10-08T06:51:28.003Z,57.3
2017-10-08T06:52:29.422Z,57.3
2017-10-08T06:53:30.839Z,57.4
2017-10-08T06:54:32.256Z,57.1
2017-10-08T06:55:33.670Z,56.8
2017-10-08T06:56:35.086Z,57.0
2017-10-08T06:57:36.509Z,57.0
2017-10-08T06:58:37.930Z,57.1
2017-10-08T06:59:39.349Z,57.3
2017-10-08T07:00:40.765Z,57.0
2017-10-08T07:01:42.180Z,57.2
2017-10-08T07:02:43.595Z,57.0
2017-10-08T07:03:45.012Z,57.1
2017-10-08T07:04:46.429Z,57.2
2017-10-08T07:05:47.846Z,57.0
2017-10-08T07:06:49.261Z,57.1
2017-10-08T07:07:50.676Z,57.2
2017-10-08T07:08:52.093Z,57.2
2017-10-08T07:09:53.508Z,57.3
2017-10-08T07:10:54.922Z,56.9
2017-10-08T07:11:56.338Z,57.1
2017-10-08T07:12:57.756Z,57.1
2017-10-08T07:13:59.174Z,57.1
2017-10-08T07:15:00.596Z,57.2
2017-10-08T07:16:02.010Z,57.3
2017-10-08T07:17:03.427Z,57.0
2017-10-08T07:18:04.895Z,57.1
2017-10-08T07:19:06.311Z,57.0
2017-10-08T07:20:07.728Z,57.0
2017-10-08T07:21:09.145Z,56.9
2017-10-08T07:22:10.559Z,56.9
2017-10-08T07:23:11.970Z,57.0
2017-10-08T07:24:13.391Z,57.2
2017-10-08T07:25:14.809Z,57.3
2017-10-08T07:26:16.230Z,57.2
2017-10-08T07:27:17.643Z,57.5
2017-10-08T07:28:19.065Z,56.9
2017-10-08T07:29:20.483Z,57.5
2017-10-08T07:30:21.895Z,56.9
2017-10-08T07:31:23.359Z,56.9
2017-10-08T07:32:24.775Z,56.9
2017-10-08T07:33:26.201Z,56.9
2017-10-08T07:34:27.616Z,56.9
2017-10-08T07:35:29.029Z,56.9
2017-10-08T07:36:30.444Z,56.9
2017-10-08T07:37:31.863Z,56.9
2017-10-08T07:38:33.279Z,56.9
2017-10-08T07:39:34.718Z,56.7
2017-10-08T07:40:36.137Z,57.2
2017-10-08T07:41:37.557Z,57.0
2017-10-08T07:42:38.973Z,56.9
2017-10-08T07:43:40.389Z,57.1
2017-10-08T07:44:41.811Z,56.8
2017-10-08T07:45:43.231Z,57.1
2017-10-08T07:46:44.644Z,57.0
2017-10-08T07:47:46.061Z,57.1
2017-10-08T07:48:47.470Z,57.0
2017-10-08T07:49:48.900Z,56.8
2017-10-08T07:50:50.315Z,57.0
2017-10-08T07:51:51.730Z,57.1
2017-10-08T07:52:53.146Z,57.3
2017-10-08T07:53:54.563Z,57.0
2017-10-08T07:54:55.980Z,56.9
2017-10-08T07:55:57.393Z,56.5
2017-10-08T07:56:58.817Z,56.8
2017-10-08T07:58:00.235Z,56.8
2017-10-08T07:59:01.658Z,57.2
2017-10-08T08:00:03.073Z,57.1
2017-10-08T08:01:04.491Z,57.0
2017-10-08T08:02:05.936Z,57.1
2017-10-08T08:03:07.356Z,57.0
2017-10-08T08:04:08.768Z,57.1
2017-10-08T08:05:10.184Z,57.0
2017-10-08T08:06:11.603Z,56.9
2017-10-08T08:07:13.024Z,57.1
2017-10-08T08:08:14.440Z,57.1
2017-10-08T08:09:15.857Z,57.1
2017-10-08T08:10:17.271Z,57.0
2017-10-08T08:11:18.687Z,57.1
2017-10-08T08:12:20.108Z,57.3
2017-10-08T08:13:21.527Z,57.1
2017-10-08T08:14:22.944Z,57.0
2017-10-08T08:15:24.360Z,56.9
2017-10-08T08:16:25.775Z,57.2
2017-10-08T08:17:27.191Z,57.0
2017-10-08T08:18:28.612Z,56.3
2017-10-08T08:19:30.035Z,57.3
2017-10-08T08:20:31.444Z,56.4
2017-10-08T08:21:32.862Z,56.5
2017-10-08T08:22:34.280Z,56.6
2017-10-08T08:23:35.693Z,56.7
2017-10-08T08:24:37.110Z,56.6
2017-10-08T08:25:38.524Z,56.6
2017-10-08T08:26:39.941Z,56.3
2017-10-08T08:27:41.360Z,56.9
2017-10-08T08:28:42.778Z,56.6
2017-10-08T08:29:44.195Z,56.8
2017-10-08T08:30:45.613Z,56.5
2017-10-08T08:31:47.029Z,56.5
2017-10-08T08:32:48.444Z,56.5
2017-10-08T08:33:49.863Z,56.4
2017-10-08T08:34:51.280Z,56.5
2017-10-08T08:35:52.707Z,56.6
2017-10-08T08:36:54.122Z,56.7
2017-10-08T08:37:55.560Z,56.6
2017-10-08T08:38:56.974Z,56.8
2017-10-08T08:39:58.395Z,56.8
2017-10-08T08:40:59.809Z,56.4
2017-10-08T08:42:01.227Z,56.8
2017-10-08T08:43:02.644Z,56.3
2017-10-08T08:44:04.060Z,56.4
2017-10-08T08:45:05.475Z,56.5
2017-10-08T08:46:06.891Z,56.6
2017-10-08T08:47:08.314Z,56.4
2017-10-08T08:48:09.731Z,56.6
2017-10-08T08:49:11.149Z,56.8
2017-10-08T08:50:12.566Z,56.8
2017-10-08T08:51:13.983Z,56.8
2017-10-08T08:52:15.403Z,56.7
2017-10-08T08:53:16.819Z,56.7
2017-10-08T08:54:18.237Z,56.7
2017-10-08T08:55:19.654Z,56.8
2017-10-08T08:56:21.071Z,56.6
2017-10-08T08:57:22.487Z,56.5
2017-10-08T08:58:23.903Z,56.4
2017-10-08T08:59:25.329Z,56.9
2017-10-08T09:00:26.746Z,56.4
2017-10-08T09:01:28.165Z,56.4
2017-10-08T09:02:29.579Z,56.3
2017-10-08T09:03:30.998Z,56.3
2017-10-08T09:04:32.428Z,56.2
2017-10-08T09:05:33.841Z,56.3
2017-10-08T09:06:35.257Z,56.8
2017-10-08T09:07:36.678Z,57.0
2017-10-08T09:08:38.099Z,56.4
2017-10-08T09:09:39.517Z,56.3
2017-10-08T09:10:40.932Z,56.4
2017-10-08T09:11:42.351Z,56.2
2017-10-08T09:12:43.767Z,56.3
2017-10-08T09:13:45.181Z,56.2
2017-10-08T09:14:46.600Z,56.7
2017-10-08T09:15:48.016Z,56.9
2017-10-08T09:16:49.435Z,56.3
2017-10-08T09:17:50.851Z,56.2
2017-10-08T09:18:52.272Z,56.2
2017-10-08T09:19:53.692Z,56.4
2017-10-08T09:20:55.146Z,56.2
2017-10-08T09:21:56.525Z,56.4
2017-10-08T09:22:57.942Z,56.2
2017-10-08T09:23:59.360Z,56.5
2017-10-08T09:25:00.776Z,56.9
2017-10-08T09:26:02.191Z,56.2
2017-10-08T09:27:03.610Z,56.6
2017-10-08T09:28:05.074Z,56.3
2017-10-08T09:29:06.497Z,56.3
2017-10-08T09:30:07.909Z,56.3
2017-10-08T09:31:09.328Z,56.3
2017-10-08T09:32:10.746Z,56.2
2017-10-08T09:33:12.164Z,56.3
2017-10-08T09:34:13.582Z,56.4
2017-10-08T09:35:15.001Z,56.2
2017-10-08T09:36:16.424Z,56.2
2017-10-08T09:37:17.834Z,56.4
2017-10-08T09:38:19.254Z,56.3
2017-10-08T09:39:20.669Z,56.1
2017-10-08T09:40:22.089Z,56.1
2017-10-08T09:41:23.503Z,56.1
2017-10-08T09:42:24.922Z,56.2
2017-10-08T09:43:26.392Z,56.1
2017-10-08T09:44:27.818Z,56.2
2017-10-08T09:45:29.238Z,56.2
2017-10-08T09:46:30.652Z,56.2
2017-10-08T09:47:32.071Z,56.2
2017-10-08T09:48:33.486Z,56.2
2017-10-08T09:49:34.902Z,56.2
2017-10-08T09:50:36.317Z,56.2
2017-10-08T09:51:37.743Z,56.3
2017-10-08T09:52:39.162Z,56.2
2017-10-08T09:53:40.581Z,56.4
2017-10-08T09:54:42.002Z,56.5
2017-10-08T09:55:43.417Z,56.2
2017-10-08T09:56:44.833Z,56.2
2017-10-08T09:57:46.252Z,56.5
2017-10-08T09:58:47.666Z,56.6
2017-10-08T09:59:49.085Z,56.4
2017-10-08T10:00:50.503Z,56.6
2017-10-08T10:01:51.920Z,56.3
2017-10-08T10:02:53.335Z,56.2
2017-10-08T10:03:54.754Z,56.2
2017-10-08T10:04:56.175Z,56.2
2017-10-08T10:05:57.581Z,56.2
2017-10-08T10:06:59.028Z,56.3
2017-10-08T10:08:00.446Z,56.2
2017-10-08T10:09:01.863Z,56.1
2017-10-08T10:10:03.291Z,56.2
2017-10-08T10:11:04.710Z,56.1
2017-10-08T10:12:06.126Z,56.1
2017-10-08T10:13:07.555Z,56.2
2017-10-08T10:14:08.970Z,56.3
2017-10-08T10:15:10.405Z,56.1
2017-10-08T10:16:11.824Z,56.0
2017-10-08T10:17:13.242Z,56.2
2017-10-08T10:18:14.655Z,56.0
2017-10-08T10:19:16.080Z,56.2
2017-10-08T10:20:17.501Z,56.3
2017-10-08T10:21:18.915Z,56.1
2017-10-08T10:22:20.331Z,55.8
2017-10-08T10:23:21.749Z,56.2
2017-10-08T10:24:23.169Z,56.1
2017-10-08T10:25:24.586Z,56.2
2017-10-08T10:26:26.005Z,56.2
2017-10-08T10:27:27.456Z,56.1
2017-10-08T10:28:28.874Z,56.2
2017-10-08T10:29:30.295Z,56.0
2017-10-08T10:30:31.711Z,56.2
2017-10-08T10:31:33.129Z,56.1
2017-10-08T10:32:34.546Z,56.0
2017-10-08T10:33:35.967Z,56.2
2017-10-08T10:34:37.400Z,56.3
2017-10-08T10:35:38.819Z,56.2
2017-10-08T10:36:40.241Z,56.0
2017-10-08T10:37:41.650Z,56.0
2017-10-08T10:38:43.068Z,56.0
2017-10-08T10:39:44.491Z,55.9
2017-10-08T10:40:45.900Z,56.3
2017-10-08T10:41:47.323Z,56.1
2017-10-08T10:42:48.741Z,56.1
2017-10-08T10:43:50.157Z,56.0
2017-10-08T10:44:51.573Z,56.0
2017-10-08T10:45:52.988Z,56.2
2017-10-08T10:46:54.414Z,56.2
2017-10-08T10:47:55.833Z,56.1
2017-10-08T10:48:57.270Z,56.1
2017-10-08T10:49:58.688Z,56.1
2017-10-08T10:51:00.105Z,56.0
2017-10-08T10:52:01.524Z,56.2
2017-10-08T10:53:02.941Z,56.2
2017-10-08T10:54:04.364Z,56.1
2017-10-08T10:55:05.781Z,56.0
2017-10-08T10:56:07.198Z,56.1
2017-10-08T10:57:08.615Z,56.1
2017-10-08T10:58:10.031Z,56.0
2017-10-08T10:59:11.453Z,56.2
2017-10-08T11:00:12.866Z,56.1
2017-10-08T11:01:14.284Z,56.1
2017-10-08T11:02:15.698Z,56.1
2017-10-08T11:03:17.116Z,56.1
2017-10-08T11:04:18.533Z,56.2
2017-10-08T11:05:19.949Z,56.1
2017-10-08T11:06:21.370Z,56.1
2017-10-08T11:07:22.788Z,56.2
2017-10-08T11:08:24.203Z,56.5
2017-10-08T11:09:25.616Z,56.5
2017-10-08T11:10:27.037Z,56.3
2017-10-08T11:11:28.453Z,56.4
2017-10-08T11:12:29.908Z,56.4
2017-10-08T11:13:31.324Z,56.2
2017-10-08T11:14:32.740Z,56.6
2017-10-08T11:15:34.155Z,56.3
2017-10-08T11:16:35.573Z,56.3
2017-10-08T11:17:36.991Z,56.2
2017-10-08T11:18:38.407Z,56.3
2017-10-08T11:19:39.824Z,56.2
2017-10-08T11:20:41.241Z,56.2
2017-10-08T11:21:42.660Z,56.4
2017-10-08T11:22:44.077Z,56.3
2017-10-08T11:23:45.497Z,56.3
2017-10-08T11:24:46.914Z,56.5
2017-10-08T11:25:48.340Z,56.4
2017-10-08T11:26:49.755Z,56.2
2017-10-08T11:27:51.172Z,56.2
2017-10-08T11:28:52.588Z,56.3
2017-10-08T11:29:54.003Z,56.4
2017-10-08T11:30:55.420Z,56.4
2017-10-08T11:31:56.835Z,56.3
2017-10-08T11:32:58.252Z,56.2
2017-10-08T11:33:59.670Z,56.6
2017-10-08T11:35:01.084Z,56.4
2017-10-08T11:36:02.501Z,56.3
2017-10-08T11:37:03.921Z,56.6
2017-10-08T11:38:05.340Z,56.6
2017-10-08T11:39:06.757Z,56.2
2017-10-08T11:40:08.175Z,56.1
2017-10-08T11:41:09.591Z,56.3
2017-10-08T11:42:11.010Z,56.2
2017-10-08T11:43:12.425Z,56.2
2017-10-08T11:44:13.846Z,56.1
2017-10-08T11:45:15.263Z,56.5
2017-10-08T11:46:16.679Z,56.4
2017-10-08T11:47:18.095Z,56.4
2017-10-08T11:48:19.509Z,56.4
2017-10-08T11:49:20.928Z,56.3
2017-10-08T11:50:22.348Z,56.3
2017-10-08T11:51:23.767Z,56.5
2017-10-08T11:52:25.183Z,56.3
2017-10-08T11:53:26.601Z,56.3
2017-10-08T11:54:28.024Z,56.0
2017-10-08T11:55:29.441Z,56.1
2017-10-08T11:56:30.855Z,56.2
2017-10-08T11:57:32.272Z,56.2
2017-10-08T11:58:33.690Z,56.2
2017-10-08T11:59:35.107Z,56.2
2017-10-08T12:00:36.526Z,56.1
2017-10-08T12:01:37.942Z,56.3
2017-10-08T12:02:39.363Z,56.3
2017-10-08T12:03:40.780Z,56.1
2017-10-08T12:04:42.196Z,56.2
2017-10-08T12:05:43.613Z,56.3
2017-10-08T12:06:45.029Z,56.1
2017-10-08T12:07:46.444Z,56.2
2017-10-08T12:08:47.859Z,56.0
2017-10-08T12:09:49.296Z,56.1
2017-10-08T12:10:50.726Z,56.1
2017-10-08T12:11:52.143Z,56.1
2017-10-08T12:12:53.560Z,56.1
2017-10-08T12:13:54.979Z,56.2
2017-10-08T12:14:56.393Z,55.8
2017-10-08T12:15:57.810Z,56.1
2017-10-08T12:16:59.226Z,56.2
2017-10-08T12:18:00.642Z,56.2
2017-10-08T12:19:02.059Z,56.2
2017-10-08T12:20:03.481Z,55.8
2017-10-08T12:21:04.896Z,55.9
2017-10-08T12:22:06.313Z,56.2
2017-10-08T12:23:07.730Z,56.2
2017-10-08T12:24:09.154Z,56.2
2017-10-08T12:25:10.566Z,56.1
2017-10-08T12:26:11.984Z,56.1
2017-10-08T12:27:13.403Z,56.3
2017-10-08T12:28:14.818Z,56.3
2017-10-08T12:29:16.239Z,56.3
2017-10-08T12:30:17.654Z,56.1
2017-10-08T12:31:19.071Z,56.1
2017-10-08T12:32:20.490Z,56.1
2017-10-08T12:33:21.909Z,56.2
2017-10-08T12:34:23.325Z,56.2
2017-10-08T12:35:24.745Z,56.1
2017-10-08T12:36:26.164Z,56.0
2017-10-08T12:37:27.582Z,56.2
2017-10-08T12:38:29.000Z,56.1
2017-10-08T12:39:30.414Z,56.1
2017-10-08T12:40:31.834Z,55.9
2017-10-08T12:41:33.254Z,56.0
2017-10-08T12:42:34.666Z,56.3
2017-10-08T12:43:36.088Z,56.1
2017-10-08T12:44:37.501Z,56.2
2017-10-08T12:45:38.916Z,56.2
2017-10-08T12:46:40.336Z,56.1
2017-10-08T12:47:41.757Z,56.1
2017-10-08T12:48:43.175Z,56.2
2017-10-08T12:49:44.593Z,56.0
2017-10-08T12:50:46.010Z,56.4
2017-10-08T12:51:47.430Z,56.2
2017-10-08T12:52:48.844Z,55.9
2017-10-08T12:53:50.263Z,56.0
2017-10-08T12:54:51.679Z,56.3
2017-10-08T12:55:53.094Z,56.1
2017-10-08T12:56:54.508Z,56.2
2017-10-08T12:57:55.928Z,56.0
2017-10-08T12:58:57.341Z,56.3
2017-10-08T12:59:58.760Z,56.2
2017-10-08T13:01:00.177Z,56.0
2017-10-08T13:02:01.597Z,56.2
2017-10-08T13:03:03.016Z,56.2
2017-10-08T13:04:04.433Z,56.2
2017-10-08T13:05:05.850Z,55.9
2017-10-08T13:06:07.266Z,56.1
2017-10-08T13:07:08.685Z,56.1
2017-10-08T13:08:10.101Z,56.2
2017-10-08T13:09:11.519Z,56.2
2017-10-08T13:10:12.936Z,56.1
2017-10-08T13:11:14.353Z,56.1
2017-10-08T13:12:15.772Z,56.0
2017-10-08T13:13:17.186Z,56.0
2017-10-08T13:14:18.606Z,56.2
2017-10-08T13:15:20.022Z,56.2
2017-10-08T13:16:21.443Z,56.2
2017-10-08T13:17:22.860Z,56.0
2017-10-08T13:18:24.276Z,56.3
2017-10-08T13:19:25.691Z,56.1
2017-10-08T13:20:27.112Z,56.3
2017-10-08T13:21:28.526Z,56.2
2017-10-08T13:22:29.947Z,56.1
2017-10-08T13:23:31.361Z,56.2
2017-10-08T13:24:32.774Z,56.0
2017-10-08T13:25:34.194Z,56.1
2017-10-08T13:26:35.611Z,56.1
2017-10-08T13:27:37.044Z,56.0
2017-10-08T13:28:38.460Z,56.2
2017-10-08T13:29:39.876Z,55.8
2017-10-08T13:30:41.294Z,56.2
2017-10-08T13:31:42.717Z,56.3
2017-10-08T13:32:44.131Z,56.2
2017-10-08T13:33:45.549Z,56.2
2017-10-08T13:34:46.967Z,56.1
2017-10-08T13:35:48.384Z,56.2
2017-10-08T13:36:49.803Z,56.2
2017-10-08T13:37:51.220Z,56.1